Estaciones Metar próximas

 

LELL - Sabadell, Spain
Distancia a la estación: E 18km
Actualizado: 06/12/2021 00:30
Despejado
Despejado
 Viento del SO
Viento: SO 13 km/h
Temperatura: 6°C
Sensación Térmica: 3°C
Rocío: -1°C
Humedad: 61%
Barómetro: 1013 hPa
Resumen: Despejado
Visibilidad: greater than 10 km
2021/12/05 23:30 LELL 052330Z AUTO 23007KT CAVOK 06/M01 Q1013
LEBL - Barcelona Airpor, Spain
Distancia a la estación: SSE 33km
Actualizado: 06/12/2021 00:30
Despejado
Despejado
 Viento del NO
Viento: NO 13 km/h
Temperatura: 8°C
Sensación Térmica: 6°C
Rocío: -2°C
Humedad: 50%
Barómetro: 1014 hPa
Resumen: Despejado
Visibilidad: greater than 10 km
2021/12/05 23:30 LEBL 052330Z 32007KT 290V010 CAVOK 08/M02 Q1014 NOSIG
LERS - Reus (civ/Mil), Spain
Distancia a la estación: SO 75km
Actualizado: 06/12/2021 00:30
Despejado
Despejado
 Viento del varies
Viento: varies 13 km/h, Racha: 31 km/h
Temperatura: 8°C
Sensación Térmica: 6°C
Rocío: -1°C
Humedad: 53%
Barómetro: 1014 hPa
Resumen: Despejado
Visibilidad: greater than 10 km
2021/12/05 23:30 LERS 052330Z AUTO VRB07G17KT CAVOK 08/M01 Q1014
 
LEGE - Gerona/Costa Bra, Spain
Distancia a la estación: ENE 83km
Actualizado: 06/12/2021 00:30
Despejado
Despejado
 Viento del SSO
Viento: SSO 9 km/h
Temperatura: 1°C
Sensación Térmica: -2°C
Rocío: -4°C
Humedad: 70%
Barómetro: 1012 hPa
Resumen: Despejado
Visibilidad: greater than 10 km
2021/12/05 23:30 LEGE 052330Z 21005KT 160V260 CAVOK 01/M04 Q1012
LFMP - Perpignan/Rivesa, France
Distancia a la estación: NNE 155km
Actualizado: 06/12/2021 00:30
Tormenta
Tormenta
 Viento del ONO
Viento: ONO 44 km/h, Racha: 69 km/h
Temperatura: 8°C
Sensación Térmica: 3°C
Rocío: 2°C
Humedad: 66%
Barómetro: 1012 hPa
Nubes: Tormenta
Visibilidad: 10 km
Detalle Nubes: Nubes dispersas 884 m
Parcialmente nuboso 1067 m
2021/12/05 23:30 LFMP 052330Z AUTO 30024G37KT 9999 FEW029/// SCT035/// ///TCU 08/02 Q1012
LFMK - Carcassonne/Salv, France
Distancia a la estación: N 191km
Actualizado: 06/12/2021 00:30
Lluvia débil, Tormenta
Lluvia débil, Tormenta
 Viento del O
Viento: O 30 km/h
Temperatura: 5°C
Sensación Térmica: 0°C
Rocío: 4°C
Humedad: 93%
Barómetro: 1015 hPa
Resumen: Lluvia débil
Nubes: Tormenta
Visibilidad: 6 km
Detalle Nubes: Nubes dispersas 274 m
Parcialmente nuboso 671 m
Muy nuboso 823 m
2021/12/05 23:30 LFMK 052330Z AUTO 28016KT 6000 -RA FEW009/// SCT022/// BKN027/// ///TCU 05/04 Q1015
 
LEHC - Huesca-Pirineos, Spain
Distancia a la estación: ONO 193km
Actualizado: 06/12/2021 00:30
Despejado
Despejado
 Viento del O
Viento: O 22 km/h
Temperatura: 2°C
Sensación Térmica: -3°C
Rocío: 0°C
Humedad: 87%
Barómetro: 1017 hPa
Resumen: Despejado
Visibilidad: greater than 10 km
2021/12/05 23:30 LEHC 052330Z AUTO 26012KT 230V290 CAVOK 02/00 Q1017
LFMU - Beziers/Vias, France
Distancia a la estación: NNE 232km
Actualizado: 06/12/2021 00:30
Muy nuboso
Muy nuboso
 Viento del NO
Viento: NO 15 km/h
Temperatura: 6°C
Sensación Térmica: 3°C
Rocío: 0°C
Humedad: 66%
Barómetro: 1012 hPa
Nubes: Muy nuboso
Visibilidad: 10 km
Detalle Nubes: Nubes dispersas 1433 m
Parcialmente nuboso 1646 m
Muy nuboso 6096 m
2021/12/05 23:30 LFMU 052330Z AUTO 31008KT 9999 FEW047 SCT054 BKN200 06/M00 Q1012
LEPA - Palma De Mallorc, Spain
Distancia a la estación: SSE 233km
Actualizado: 06/12/2021 00:30
Nubes dispersas
Nubes dispersas
 Viento del NNO
Viento: NNO 35 km/h, Racha: 54 km/h
Temperatura: 11°C
Rocío: 5°C
Humedad: 67%
Barómetro: 1014 hPa
Nubes: Nubes dispersas
Visibilidad: 10 km
Detalle Nubes: Nubes dispersas 914 m
2021/12/05 23:30 LEPA 052330Z 33019G29KT 9999 FEW030 11/05 Q1014 NOSIG
 
LFBO - Toulouse/Blagnac, France
Distancia a la estación: N 236km
Actualizado: 06/12/2021 00:30
Cubierto
Cubierto
 Viento del O
Viento: O 24 km/h
Temperatura: 6°C
Sensación Térmica: 2°C
Rocío: 4°C
Humedad: 87%
Barómetro: 1017 hPa
Nubes: Cubierto
Visibilidad: 10 km
Detalle Nubes: Muy nuboso 1006 m
Muy nuboso 1311 m
Cubierto 1768 m
2021/12/05 23:30 LFBO 052330Z AUTO 28013KT 9999 BKN033 BKN043 OVC058 06/04 Q1017 NOSIG
LFBT - Tarbes/Ossun, France
Distancia a la estación: NO 239km
Actualizado: 06/12/2021 00:30
Lluvia, Mist, Tormenta
Lluvia, Mist, Tormenta
 Viento del O
Viento: O 22 km/h
Temperatura: 5°C
Sensación Térmica: 1°C
Rocío: 3°C
Humedad: 87%
Barómetro: 1020 hPa
Resumen: Lluvia, Mist
Nubes: Tormenta
Visibilidad: 5 km
Detalle Nubes: Nubes dispersas 488 m
Muy nuboso 701 m
Muy nuboso 1006 m
2021/12/05 23:30 LFBT 052330Z AUTO 27012KT 240V300 5000 RA BR FEW016/// BKN023/// BKN033/// ///TCU 05/03 Q1020 TEMPO 28015G30KT SCT010 FEW012CB BKN015TCU
LEZG - Zaragoza (mil/Ci, Spain
Distancia a la estación: O 242km
Actualizado: 06/12/2021 00:30
Nubes dispersas
Nubes dispersas
 Viento del ONO
Viento: ONO 31 km/h
Temperatura: 6°C
Sensación Térmica: 1°C
Rocío: 3°C
Humedad: 81%
Barómetro: 1020 hPa
Nubes: Nubes dispersas
Visibilidad: 10 km
Detalle Nubes: Nubes dispersas 1067 m
2021/12/05 23:30 LEZG 052330Z 29017KT 9999 FEW035 06/03 Q1020